Time;durP1;ratioP1;P1;durP2;ratioP2;P2;SDS_P1;SDS_P2;PMS_P1;PMS_P2;Temp;Humidity;BMP_temperature;BMP_pressure;BME280_temperature;BME280_humidity;BME280_pressure;Samples;Min_cycle;Max_cycle;Signal;HPM_P1;HPM_P2
2022/11/20 00:01:37;;;;;;;18.67;10.63;;;;;;;7.58;42.46;101453.75;5049506;28;20140;-73
2022/11/20 00:04:03;;;;;;;20.53;10.97;;;;;;;8.31;40.25;101458.00;5049230;28;20083;-73
2022/11/20 00:06:30;;;;;;;18.90;10.10;;;;;;;7.78;40.20;101453.09;5048679;28;20021;-73
2022/11/20 00:08:58;;;;;;;20.43;10.37;;;;;;;7.64;41.13;101453.81;5047989;28;20800;-73
2022/11/20 00:11:25;;;;;;;18.43;9.73;;;;;;;7.62;41.64;101455.53;5047728;28;20325;-73
2022/11/20 00:13:54;;;;;;;19.93;10.13;;;;;;;7.48;41.93;101452.75;5047258;28;20036;-74
2022/11/20 00:16:22;;;;;;;20.70;10.33;;;;;;;7.76;40.64;101452.19;5048646;28;20494;-73
2022/11/20 00:18:48;;;;;;;18.27;10.53;;;;;;;7.85;41.50;101454.91;5047975;28;20280;-73
2022/11/20 00:21:20;;;;;;;19.13;9.73;;;;;;;8.27;39.91;101460.53;5050008;28;20305;-73
2022/11/20 00:23:45;;;;;;;24.13;11.20;;;;;;;8.18;41.27;101466.53;5047482;28;20093;-73
2022/11/20 00:26:13;;;;;;;27.23;12.23;;;;;;;8.02;41.92;101470.72;5050498;28;20025;-73
2022/11/20 00:28:40;;;;;;;22.53;11.37;;;;;;;8.02;40.92;101469.84;5050896;28;20482;-74
2022/11/20 00:31:14;;;;;;;19.33;10.60;;;;;;;7.55;42.55;101451.09;5051889;28;20788;-73
2022/11/20 00:33:40;;;;;;;20.87;11.27;;;;;;;7.70;42.26;101457.34;5051737;28;20119;-74
2022/11/20 00:36:14;;;;;;;22.60;10.83;;;;;;;8.25;40.64;101451.84;5051772;28;20398;-74
2022/11/20 00:38:40;;;;;;;21.50;10.20;;;;;;;7.94;41.39;101442.00;5051635;28;20032;-74
2022/11/20 00:41:08;;;;;;;23.43;11.03;;;;;;;7.53;41.84;101445.00;5052148;28;20283;-74
2022/11/20 00:43:34;;;;;;;22.07;10.77;;;;;;;7.06;42.56;101447.84;5052159;28;20060;-73
2022/11/20 00:46:09;;;;;;;20.77;10.37;;;;;;;7.28;41.87;101447.28;5053178;28;20126;-73
2022/11/20 00:48:34;;;;;;;16.97;10.20;;;;;;;7.89;41.90;101454.09;5052348;28;20039;-74
2022/11/20 00:51:00;;;;;;;19.77;10.70;;;;;;;7.75;40.78;101445.28;5051668;28;20367;-74
2022/11/20 00:53:26;;;;;;;20.87;10.83;;;;;;;7.38;41.63;101442.22;5051552;28;20397;-74
2022/11/20 00:55:54;;;;;;;22.57;10.70;;;;;;;7.20;42.74;101438.53;5053226;28;20044;-74
2022/11/20 00:58:20;;;;;;;18.63;10.07;;;;;;;6.77;41.75;101441.38;5051548;28;20437;-73
2022/11/20 01:00:45;;;;;;;20.30;10.23;;;;;;;7.26;41.95;101430.78;5050715;28;20144;-74
2022/11/20 01:03:11;;;;;;;19.17;10.47;;;;;;;7.76;41.51;101439.19;5050585;28;20029;-74
2022/11/20 01:05:36;;;;;;;20.67;10.90;;;;;;;7.76;41.99;101441.78;5052473;28;20053;-74
2022/11/20 01:08:03;;;;;;;21.90;11.50;;;;;;;8.14;41.74;101436.13;5035302;28;20079;-74
2022/11/20 01:10:29;;;;;;;19.63;10.77;;;;;;;7.95;41.46;101443.75;5052856;28;20457;-73
2022/11/20 01:13:36;;;;;;;23.03;10.50;;;;;;;7.99;42.38;101442.03;5051750;28;20490;-74
2022/11/20 01:15:39;;;;;;;20.17;9.67;;;;;;;7.88;42.31;101447.13;5052551;28;20405;-74
2022/11/20 01:18:05;;;;;;;21.37;10.93;;;;;;;7.89;42.26;101438.47;5051681;28;20387;-73
2022/11/20 01:20:34;;;;;;;20.87;10.87;;;;;;;8.22;42.71;101444.88;5082376;28;20036;-74
2022/11/20 01:23:00;;;;;;;21.83;9.97;;;;;;;8.23;41.05;101449.25;5052372;28;20094;-74
2022/11/20 01:25:25;;;;;;;21.17;11.00;;;;;;;7.95;41.34;101435.06;5053399;28;20299;-74
2022/11/20 01:27:51;;;;;;;22.00;10.60;;;;;;;7.87;42.00;101432.41;5051169;28;20029;-74
2022/11/20 01:30:16;;;;;;;20.63;10.30;;;;;;;7.95;42.50;101433.34;5051498;28;20025;-73
2022/11/20 01:32:42;;;;;;;23.57;12.50;;;;;;;8.13;40.77;101431.75;5052090;28;20037;-74
2022/11/20 01:35:09;;;;;;;23.43;10.97;;;;;;;8.18;41.35;101424.88;5050740;28;20082;-74
2022/11/20 01:37:35;;;;;;;23.90;12.03;;;;;;;8.13;40.84;101426.56;5052238;28;20482;-74
2022/11/20 01:40:00;;;;;;;21.57;11.53;;;;;;;7.54;43.35;101423.34;5051660;28;20294;-73
2022/11/20 01:45:47;;;;;;;19.80;11.23;;;;;;;7.95;42.03;101422.94;5053040;28;20094;-73
2022/11/20 01:48:13;;;;;;;22.45;11.05;;;;;;;7.56;43.32;101429.44;5049353;28;20652;-74
2022/11/20 01:50:41;;;;;;;22.63;11.90;;;;;;;7.94;41.42;101425.50;5050223;28;20488;-74
2022/11/20 01:53:10;;;;;;;21.17;10.93;;;;;;;8.00;41.45;101427.31;5083441;28;20294;-73
2022/11/20 01:55:48;;;;;;;21.00;11.00;;;;;;;8.04;41.70;101429.94;5051016;28;20267;-74
2022/11/20 01:58:13;;;;;;;19.73;10.47;;;;;;;7.31;42.38;101438.66;5050284;28;20371;-74
2022/11/20 02:00:40;;;;;;;20.30;10.27;;;;;;;7.30;43.17;101424.75;5050805;28;20390;-74
2022/11/20 02:03:08;;;;;;;25.57;11.63;;;;;;;7.26;44.13;101422.97;5050419;28;20040;-74
2022/11/20 02:05:37;;;;;;;20.07;10.77;;;;;;;7.52;42.68;101422.44;5051417;28;20327;-74
2022/11/20 02:08:05;;;;;;;18.53;10.37;;;;;;;7.69;42.73;101425.22;5052261;28;20435;-74
2022/11/20 02:10:31;;;;;;;21.33;10.63;;;;;;;7.91;41.60;101423.75;5050670;28;20302;-74
2022/11/20 02:15:42;;;;;;;24.83;12.20;;;;;;;7.52;41.89;101422.44;5050758;28;20344;-74
2022/11/20 02:18:09;;;;;;;22.83;12.13;;;;;;;7.75;42.34;101435.72;5051206;28;20279;-74
2022/11/20 02:20:34;;;;;;;23.97;11.30;;;;;;;7.42;43.23;101436.22;5049900;28;20303;-74
2022/11/20 02:23:08;;;;;;;22.47;11.63;;;;;;;7.69;42.88;101435.63;5050623;28;20400;-74
2022/11/20 02:25:36;;;;;;;25.97;13.07;;;;;;;7.43;43.21;101424.91;5050235;28;20402;-74
2022/11/20 02:28:02;;;;;;;27.40;13.00;;;;;;;7.43;42.06;101425.81;5052550;28;20366;-74
2022/11/20 02:30:28;;;;;;;25.47;12.20;;;;;;;6.95;43.73;101419.97;5049903;28;20295;-74
2022/11/20 02:32:53;;;;;;;22.83;11.97;;;;;;;7.55;43.61;101422.47;5050017;28;20298;-74
2022/11/20 02:35:18;;;;;;;26.57;12.47;;;;;;;7.46;43.42;101422.38;5051764;28;20028;-74
2022/11/20 02:37:46;;;;;;;24.93;12.97;;;;;;;7.27;44.10;101422.13;5051937;28;20078;-74
2022/11/20 02:40:12;;;;;;;20.93;10.43;;;;;;;7.38;44.00;101418.81;5049621;28;20435;-74
2022/11/20 02:42:37;;;;;;;23.53;11.77;;;;;;;7.25;44.51;101415.16;5050744;28;20291;-74
2022/11/20 02:45:04;;;;;;;22.70;11.97;;;;;;;7.59;43.83;101413.00;5050119;28;20036;-74
2022/11/20 02:47:30;;;;;;;23.63;10.93;;;;;;;7.16;44.16;101402.94;5051099;28;20055;-74
2022/11/20 02:49:56;;;;;;;21.83;11.63;;;;;;;7.19;44.88;101407.28;5050679;28;20299;-74
2022/11/20 02:52:21;;;;;;;22.73;11.63;;;;;;;7.34;44.27;101406.63;5042162;28;20068;-74
2022/11/20 02:54:46;;;;;;;25.03;12.70;;;;;;;7.17;44.22;101399.47;5056619;28;20035;-74
2022/11/20 02:57:12;;;;;;;21.47;11.30;;;;;;;7.62;43.26;101402.59;5049847;28;20048;-74
2022/11/20 02:59:37;;;;;;;22.27;11.47;;;;;;;7.35;43.21;101397.94;5049293;28;20063;-73
2022/11/20 03:02:02;;;;;;;28.30;12.47;;;;;;;7.40;43.44;101391.06;5049067;28;20045;-73
2022/11/20 03:04:28;;;;;;;23.40;12.10;;;;;;;7.40;43.12;101385.88;5050543;28;20025;-73
2022/11/20 03:06:53;;;;;;;27.83;12.03;;;;;;;7.48;43.58;101384.25;5049809;28;20033;-74
2022/11/20 03:09:19;;;;;;;26.07;12.37;;;;;;;7.06;43.48;101372.44;5051586;28;20478;-74
2022/11/20 03:11:44;;;;;;;24.93;12.50;;;;;;;6.84;44.22;101372.19;5048346;28;20072;-74
2022/11/20 03:14:09;;;;;;;23.10;12.53;;;;;;;7.08;43.87;101365.56;5049050;28;20104;-73
2022/11/20 03:16:35;;;;;;;25.57;12.77;;;;;;;7.09;44.47;101377.72;5050669;28;20545;-73
2022/11/20 03:19:00;;;;;;;22.97;11.57;;;;;;;7.35;43.90;101366.75;5049929;28;20025;-73
2022/11/20 03:21:26;;;;;;;23.83;12.50;;;;;;;7.28;43.88;101376.19;5049366;28;20028;-73
2022/11/20 03:23:53;;;;;;;23.23;12.20;;;;;;;7.22;43.61;101366.59;5048602;28;20064;-74
2022/11/20 03:26:24;;;;;;;22.83;12.40;;;;;;;6.81;44.59;101353.91;5047529;28;20036;-74
2022/11/20 03:28:58;;;;;;;24.87;12.50;;;;;;;6.97;44.14;101353.28;5051246;28;20388;-74
2022/11/20 03:31:26;;;;;;;22.90;10.67;;;;;;;7.10;44.38;101356.03;5048625;28;20329;-74
2022/11/20 03:33:52;;;;;;;27.70;12.83;;;;;;;6.97;43.48;101358.47;5049690;28;20274;-74
2022/11/20 03:36:19;;;;;;;23.30;11.77;;;;;;;7.25;43.48;101357.97;5043992;28;20291;-74
2022/11/20 03:38:45;;;;;;;22.73;11.57;;;;;;;7.40;42.57;101357.25;5045629;28;20032;-74
2022/11/20 03:41:16;;;;;;;23.83;11.33;;;;;;;7.43;42.79;101349.50;5048662;28;20384;-74
2022/11/20 03:43:42;;;;;;;21.00;11.52;;;;;;;6.90;43.77;101343.66;5049617;28;20025;-74
2022/11/20 03:46:07;;;;;;;21.83;11.37;;;;;;;6.99;43.41;101347.22;5080195;28;20559;-73
2022/11/20 03:48:33;;;;;;;21.10;11.13;;;;;;;7.10;44.16;101341.34;5048587;28;20143;-74
2022/11/20 03:51:22;;;;;;;22.40;11.60;;;;;;;7.18;43.85;101336.19;5044177;28;20061;-74
2022/11/20 03:53:50;;;;;;;23.43;11.60;;;;;;;6.75;44.57;101333.06;5051111;28;20051;-73
2022/11/20 03:56:17;;;;;;;21.37;11.23;;;;;;;7.34;44.23;101339.00;5049240;28;20286;-74
2022/11/20 03:58:43;;;;;;;25.40;12.13;;;;;;;6.70;44.35;101339.91;5049941;28;20850;-74
2022/11/20 04:01:16;;;;;;;25.17;12.53;;;;;;;7.44;42.93;101346.03;5047920;28;20307;-74
2022/11/20 04:03:42;;;;;;;;;;;;;;;7.40;43.37;101345.13;5051555;28;20021;-74
2022/11/20 04:06:33;;;;;;;20.53;10.87;;;;;;;7.41;43.00;101340.81;5054312;28;19917;-74
2022/11/20 04:08:59;;;;;;;23.97;11.70;;;;;;;7.10;44.12;101330.03;5052425;28;20036;-74
2022/11/20 04:11:27;;;;;;;23.80;12.47;;;;;;;6.80;44.85;101326.22;5051712;28;20300;-74
2022/11/20 04:13:58;;;;;;;24.73;12.40;;;;;;;7.23;43.58;101326.72;5054099;28;20136;-73
2022/11/20 04:16:25;;;;;;;28.63;12.47;;;;;;;6.79;44.99;101314.06;5052938;28;20354;-74
2022/11/20 04:18:54;;;;;;;23.57;12.20;;;;;;;6.40;44.97;101310.94;5052852;28;20348;-73
2022/11/20 04:21:20;;;;;;;25.00;12.37;;;;;;;6.76;45.04;101304.50;5054080;28;20271;-74
2022/11/20 04:23:46;;;;;;;21.60;11.40;;;;;;;7.14;43.36;101303.22;5052770;28;20303;-74
2022/11/20 04:26:12;;;;;;;22.40;12.20;;;;;;;7.01;44.25;101306.56;5052902;28;20067;-74
2022/11/20 04:28:38;;;;;;;25.13;13.27;;;;;;;6.81;43.94;101303.69;5054702;28;20108;-74
2022/11/20 04:31:03;;;;;;;22.90;11.50;;;;;;;6.55;45.28;101299.91;5051340;28;20294;-74
2022/11/20 04:33:29;;;;;;;21.83;11.20;;;;;;;6.50;45.15;101301.56;5051806;28;20296;-74
2022/11/20 04:35:54;;;;;;;25.70;12.70;;;;;;;5.53;45.79;101303.41;5052334;28;20048;-74
2022/11/20 04:38:19;;;;;;;22.07;11.83;;;;;;;6.46;45.35;101294.56;5052640;28;20025;-74
2022/11/20 04:40:45;;;;;;;22.77;11.60;;;;;;;6.66;44.24;101302.63;5052628;28;20025;-74
2022/11/20 04:43:10;;;;;;;32.17;13.20;;;;;;;5.97;46.55;101298.97;5052539;28;20037;-74
2022/11/20 04:45:35;;;;;;;22.37;11.73;;;;;;;6.61;44.82;101299.97;5050185;28;20020;-74
2022/11/20 04:48:01;;;;;;;27.33;13.17;;;;;;;6.32;46.19;101299.56;5051528;28;20364;-73
2022/11/20 04:50:26;;;;;;;27.60;13.20;;;;;;;5.89;45.89;101296.25;5052820;28;20434;-74
2022/11/20 04:52:52;;;;;;;24.47;12.37;;;;;;;6.40;44.78;101290.16;5052304;28;20056;-73
2022/11/20 04:55:17;;;;;;;26.97;12.17;;;;;;;6.76;45.22;101303.63;5052747;28;20029;-73
2022/11/20 04:57:42;;;;;;;25.47;12.17;;;;;;;7.09;44.38;101302.31;5051343;28;20032;-74
2022/11/20 05:00:08;;;;;;;26.43;13.53;;;;;;;6.94;43.48;101303.88;5052068;28;20049;-74
2022/11/20 05:02:33;;;;;;;23.63;12.33;;;;;;;6.95;44.33;101295.22;5053744;28;20027;-73
2022/11/20 05:04:59;;;;;;;28.47;12.57;;;;;;;7.25;43.98;101299.03;5051501;28;20029;-74
2022/11/20 05:07:24;;;;;;;26.27;13.60;;;;;;;6.89;43.78;101300.31;5084050;28;20028;-73
2022/11/20 05:09:49;;;;;;;24.53;12.73;;;;;;;7.00;43.92;101303.06;5052902;28;20021;-73
2022/11/20 05:12:15;;;;;;;25.13;11.93;;;;;;;6.67;44.59;101293.97;5051713;28;20036;-73
2022/11/20 05:14:40;;;;;;;24.70;12.10;;;;;;;6.81;43.98;101288.97;5050704;28;20021;-73
2022/11/20 05:17:05;;;;;;;23.40;13.03;;;;;;;6.84;43.91;101299.41;5049607;28;20037;-74
2022/11/20 05:19:31;;;;;;;25.63;12.60;;;;;;;6.87;44.66;101302.03;5050788;28;20021;-73
2022/11/20 05:21:56;;;;;;;26.63;13.10;;;;;;;6.93;44.51;101306.44;5052205;28;20016;-74
2022/11/20 05:24:22;;;;;;;25.30;12.83;;;;;;;7.03;43.83;101310.03;5052263;28;20033;-74
2022/11/20 05:26:47;;;;;;;22.77;12.13;;;;;;;7.14;43.81;101305.81;5048899;28;20036;-74
2022/11/20 05:29:12;;;;;;;23.80;12.63;;;;;;;6.99;44.22;101310.84;5052777;28;20037;-74
2022/11/20 05:31:40;;;;;;;24.47;11.87;;;;;;;7.13;44.01;101304.09;5052512;28;20110;-74
2022/11/20 05:34:06;;;;;;;25.07;12.33;;;;;;;7.07;44.22;101314.41;5051493;28;20044;-74
2022/11/20 05:36:32;;;;;;;26.73;13.13;;;;;;;6.83;44.35;101300.25;5049795;28;20294;-74
2022/11/20 05:38:57;;;;;;;27.27;13.27;;;;;;;7.17;43.85;101303.28;5050153;28;20283;-74
2022/11/20 05:41:22;;;;;;;21.60;11.97;;;;;;;7.17;43.63;101300.69;5051111;28;20021;-73
2022/11/20 05:43:49;;;;;;;27.97;13.10;;;;;;;7.02;43.81;101297.88;5051690;28;20029;-74
2022/11/20 05:46:17;;;;;;;24.40;12.67;;;;;;;6.92;44.17;101292.59;5049467;28;20020;-74
2022/11/20 05:48:43;;;;;;;21.33;11.90;;;;;;;6.96;44.34;101286.56;5049804;28;20291;-74
2022/11/20 05:51:11;;;;;;;23.10;11.53;;;;;;;7.33;44.08;101291.31;5052101;28;20025;-74
2022/11/20 05:53:36;;;;;;;25.10;12.80;;;;;;;6.74;45.22;101287.16;5052902;28;20032;-72
2022/11/20 05:56:05;;;;;;;22.53;12.07;;;;;;;7.18;44.33;101291.13;5046619;28;20487;-75
2022/11/20 05:58:32;;;;;;;27.63;12.73;;;;;;;5.96;45.47;101279.91;5046447;28;20028;-74
2022/11/20 06:01:08;;;;;;;26.43;13.63;;;;;;;6.61;46.35;101284.38;5051755;28;20755;-73
2022/11/20 06:03:33;;;;;;;24.77;11.90;;;;;;;7.34;44.70;101285.25;5050098;28;20386;-73
2022/11/20 06:05:59;;;;;;;21.80;11.93;;;;;;;7.42;44.02;101285.34;5049441;28;20025;-73
2022/11/20 06:08:24;;;;;;;26.30;12.53;;;;;;;7.09;44.10;101282.38;5052253;28;20032;-73
2022/11/20 06:10:50;;;;;;;23.30;12.13;;;;;;;6.54;46.54;101266.97;5051554;28;20036;-74
2022/11/20 06:13:15;;;;;;;28.20;12.57;;;;;;;7.04;44.04;101267.59;5051058;28;20032;-73
2022/11/20 06:15:40;;;;;;;24.57;13.57;;;;;;;5.79;46.11;101261.50;5050386;28;20020;-73
2022/11/20 06:18:06;;;;;;;28.23;13.40;;;;;;;6.36;46.07;101256.31;5050327;28;20184;-73
2022/11/20 06:20:31;;;;;;;26.83;12.57;;;;;;;6.39;46.53;101248.59;5052148;28;20455;-73
2022/11/20 06:22:56;;;;;;;26.03;13.07;;;;;;;7.17;45.06;101243.47;5083031;28;20063;-73
2022/11/20 06:25:22;;;;;;;28.57;13.37;;;;;;;7.14;44.40;101251.22;5048704;28;20116;-73
2022/11/20 06:27:47;;;;;;;24.67;13.10;;;;;;;6.83;44.92;101255.19;5051149;28;20482;-73
2022/11/20 06:30:13;;;;;;;25.73;12.33;;;;;;;6.55;44.49;101258.34;5051076;28;20078;-73
2022/11/20 06:32:38;;;;;;;24.13;12.50;;;;;;;7.25;44.39;101253.94;5050886;28;20178;-73
2022/11/20 06:35:04;;;;;;;31.13;14.23;;;;;;;6.26;46.13;101252.72;5051063;28;20025;-73
2022/11/20 06:37:29;;;;;;;26.00;13.20;;;;;;;5.86;46.18;101254.69;5050301;28;20064;-73
2022/11/20 06:39:55;;;;;;;29.67;12.87;;;;;;;6.03;47.77;101249.78;5050648;28;20655;-73
2022/11/20 06:42:20;;;;;;;30.73;13.73;;;;;;;5.79;46.04;101245.91;5050981;28;20052;-73
2022/11/20 06:44:45;;;;;;;28.77;13.67;;;;;;;6.40;45.06;101242.53;5051273;28;20056;-73
2022/11/20 06:47:11;;;;;;;25.60;13.27;;;;;;;6.43;45.56;101242.59;5049571;28;20482;-74
2022/11/20 06:49:38;;;;;;;31.30;14.40;;;;;;;6.77;44.30;101237.81;5084337;28;20071;-74
2022/11/20 06:52:04;;;;;;;26.73;12.60;;;;;;;5.99;47.28;101237.59;5082462;28;20071;-73
2022/11/20 06:54:29;;;;;;;24.10;12.33;;;;;;;6.56;46.06;101236.69;5049150;28;20275;-73
2022/11/20 06:56:54;;;;;;;27.87;13.83;;;;;;;6.37;45.66;101232.09;5048528;28;20071;-74
2022/11/20 06:59:19;;;;;;;28.77;14.20;;;;;;;6.83;45.18;101232.69;5052420;28;20474;-73
2022/11/20 07:01:45;;;;;;;28.83;14.27;;;;;;;6.57;45.20;101232.38;5051760;28;20468;-74
2022/11/20 07:04:10;;;;;;;31.53;14.20;;;;;;;7.05;43.99;101232.94;5049653;28;20450;-73
2022/11/20 07:06:36;;;;;;;28.30;13.80;;;;;;;7.27;43.61;101234.91;5049680;28;20494;-73
2022/11/20 07:09:01;;;;;;;29.47;14.27;;;;;;;7.39;43.46;101233.28;5048701;28;20397;-73
2022/11/20 07:11:27;;;;;;;28.17;13.77;;;;;;;7.35;44.16;101236.69;5050795;28;20119;-73
2022/11/20 07:13:52;;;;;;;29.17;14.83;;;;;;;7.34;43.35;101224.56;5049157;28;20389;-73
2022/11/20 07:16:17;;;;;;;33.57;16.57;;;;;;;7.40;43.62;101228.06;5048175;28;20052;-73
2022/11/20 07:18:43;;;;;;;40.80;20.17;;;;;;;7.51;44.07;101228.19;5051027;28;20025;-73
2022/11/20 07:21:10;;;;;;;31.90;15.80;;;;;;;6.66;45.47;101229.00;5049708;28;20131;-73
2022/11/20 07:23:36;;;;;;;27.60;15.10;;;;;;;6.84;45.43;101231.84;5049377;28;20075;-73
2022/11/20 07:26:09;;;;;;;33.70;15.70;;;;;;;5.88;47.63;101237.41;5048018;28;20297;-74
2022/11/20 07:28:36;;;;;;;30.30;15.43;;;;;;;6.51;46.25;101235.78;5048505;28;20294;-72
2022/11/20 07:31:01;;;;;;;28.07;14.40;;;;;;;6.83;46.59;101248.28;5051329;28;20561;-73
2022/11/20 07:33:27;;;;;;;32.53;14.77;;;;;;;6.46;46.82;101237.44;5050239;28;20044;-73
2022/11/20 07:35:52;;;;;;;32.30;16.37;;;;;;;6.77;45.80;101237.81;5050280;28;20048;-74
2022/11/20 07:38:18;;;;;;;29.30;13.93;;;;;;;5.95;47.46;101239.28;5080829;28;20112;-73
2022/11/20 07:40:43;;;;;;;33.13;15.37;;;;;;;6.64;46.93;101241.13;5049782;28;20480;-73
2022/11/20 07:43:09;;;;;;;29.97;14.73;;;;;;;6.29;46.71;101242.38;5048649;28;20140;-73
2022/11/20 07:45:34;;;;;;;29.33;13.77;;;;;;;6.92;45.74;101245.81;5049125;28;20538;-73
2022/11/20 07:47:59;;;;;;;29.83;14.30;;;;;;;6.45;46.64;101248.66;5050446;28;20075;-73
2022/11/20 07:50:25;;;;;;;34.77;14.50;;;;;;;6.72;46.04;101244.69;5049034;28;20023;-73
2022/11/20 07:52:50;;;;;;;29.30;14.47;;;;;;;6.97;46.10;101241.50;5049171;28;20033;-72
2022/11/20 07:55:15;;;;;;;34.63;17.60;;;;;;;6.89;46.35;101243.16;5079250;28;20028;-73
2022/11/20 07:57:41;;;;;;;34.73;16.50;;;;;;;6.86;45.85;101232.72;5048580;28;20021;-73
2022/11/20 08:00:08;;;;;;;30.53;15.80;;;;;;;6.73;46.59;101236.03;5048940;28;20048;-73
2022/11/20 08:02:37;;;;;;;32.30;15.60;;;;;;;6.34;47.85;101232.06;5047731;28;20024;-72
2022/11/20 08:05:02;;;;;;;32.27;17.37;;;;;;;7.06;47.37;101237.28;5048017;28;20021;-72
2022/11/20 08:07:28;;;;;;;34.53;17.23;;;;;;;7.69;45.59;101237.00;5048011;28;21342;-72
2022/11/20 08:09:53;;;;;;;30.37;16.07;;;;;;;7.57;45.64;101243.84;5048461;28;20033;-72
2022/11/20 08:15:05;;;;;;;30.80;16.83;;;;;;;7.86;44.40;101243.22;5049203;28;20487;-73
2022/11/20 08:17:31;;;;;;;31.07;15.90;;;;;;;7.69;45.56;101232.66;5049282;28;20045;-72
2022/11/20 08:19:56;;;;;;;29.80;15.13;;;;;;;6.96;46.83;101232.00;5049790;28;20052;-73
2022/11/20 08:22:22;;;;;;;31.63;16.27;;;;;;;6.96;47.20;101224.19;5047484;28;20029;-72
2022/11/20 08:24:48;;;;;;;32.80;14.80;;;;;;;7.71;45.69;101217.09;5050377;28;20452;-72
2022/11/20 08:27:13;;;;;;;29.97;15.13;;;;;;;7.84;45.35;101212.84;5046318;28;20071;-71
2022/11/20 08:29:38;;;;;;;31.27;15.70;;;;;;;7.74;46.24;101219.72;5032219;28;20029;-70
2022/11/20 08:32:04;;;;;;;30.17;16.40;;;;;;;8.72;43.42;101223.78;5040399;28;20056;-71
2022/11/20 08:34:29;;;;;;;30.30;15.60;;;;;;;8.51;44.51;101225.44;5049057;28;20136;-71
2022/11/20 08:36:55;;;;;;;32.63;16.20;;;;;;;8.92;43.55;101216.91;5047001;28;20051;-71
2022/11/20 08:39:20;;;;;;;31.20;16.90;;;;;;;8.38;44.22;101214.06;5049640;28;20037;-71
2022/11/20 08:41:45;;;;;;;29.40;15.87;;;;;;;7.01;47.12;101220.78;5050375;28;20061;-71
2022/11/20 08:44:11;;;;;;;30.20;15.43;;;;;;;7.71;46.28;101225.75;5046614;28;20056;-70
2022/11/20 08:46:39;;;;;;;38.73;16.33;;;;;;;7.74;45.28;101215.38;5047035;28;20048;-71
2022/11/20 08:49:10;;;;;;;30.87;15.60;;;;;;;8.47;44.56;101208.91;5047675;28;20025;-71
2022/11/20 08:51:36;;;;;;;30.67;15.43;;;;;;;7.85;44.61;101212.84;5050008;28;20158;-70
2022/11/20 08:54:02;;;;;;;29.53;14.73;;;;;;;8.56;44.89;101213.31;5051677;28;20486;-71
2022/11/20 08:56:28;;;;;;;34.97;16.63;;;;;;;8.92;44.23;101219.50;5051615;28;20033;-71
2022/11/20 08:58:53;;;;;;;35.80;16.53;;;;;;;9.17;43.60;101216.97;5053361;28;20037;-71
2022/11/20 09:01:20;;;;;;;30.70;15.37;;;;;;;9.26;43.07;101217.00;5051509;28;20092;-70
2022/11/20 09:03:46;;;;;;;31.70;15.70;;;;;;;9.06;43.13;101210.88;5051661;28;20017;-70
2022/11/20 09:06:11;;;;;;;31.67;15.63;;;;;;;8.90;44.01;101213.44;5050717;28;20371;-71
2022/11/20 09:08:37;;;;;;;28.67;15.53;;;;;;;8.87;43.51;101207.34;5041031;28;20104;-69
2022/11/20 09:11:03;;;;;;;29.47;16.07;;;;;;;8.19;44.98;101205.28;5043319;28;20494;-69
2022/11/20 09:13:29;;;;;;;29.07;15.70;;;;;;;8.97;44.22;101199.53;5052639;28;20024;-70
2022/11/20 09:15:56;;;;;;;26.47;14.90;;;;;;;9.37;43.51;101188.31;5048232;28;20036;-70
2022/11/20 09:18:22;;;;;;;30.00;15.73;;;;;;;9.27;43.34;101177.00;5047831;28;20029;-70
2022/11/20 09:20:47;;;;;;;29.97;16.23;;;;;;;9.46;43.71;101180.47;5052099;28;20044;-70
2022/11/20 09:23:14;;;;;;;31.27;16.90;;;;;;;9.18;44.22;101179.59;5052669;28;20025;-70
2022/11/20 09:25:39;;;;;;;29.30;16.83;;;;;;;9.56;43.72;101173.53;5050475;28;20033;-70
2022/11/20 09:28:04;;;;;;;32.23;16.83;;;;;;;9.39;43.16;101177.88;5047699;28;20025;-70
2022/11/20 09:30:30;;;;;;;28.67;15.83;;;;;;;9.90;43.15;101168.25;5048579;28;20067;-70
2022/11/20 09:32:56;;;;;;;29.77;15.97;;;;;;;10.00;43.25;101164.75;5064566;28;20110;-70
2022/11/20 09:35:21;;;;;;;27.13;15.70;;;;;;;8.82;44.77;101157.81;5051348;28;20509;-70
2022/11/20 09:37:47;;;;;;;32.30;16.43;;;;;;;8.79;44.85;101158.66;5067346;28;20095;-70
2022/11/20 09:40:31;;;;;;;28.70;16.47;;;;;;;9.54;44.20;101149.16;5049983;28;20083;-70
2022/11/20 09:43:11;;;;;;;38.10;16.70;;;;;;;10.29;42.81;101139.41;5051113;28;20036;-70
2022/11/20 09:46:01;;;;;;;31.40;17.20;;;;;;;9.44;44.58;101147.44;5063171;28;20514;-72
2022/11/20 09:48:32;;;;;;;29.03;16.33;;;;;;;9.57;44.41;101143.91;5049522;28;20550;-71
2022/11/20 09:51:07;;;;;;;31.87;16.63;;;;;;;9.61;44.75;101127.38;5061598;28;20028;-71
2022/11/20 09:53:42;;;;;;;30.93;17.63;;;;;;;9.18;45.65;101130.03;5053533;28;20094;-70
2022/11/20 09:56:10;;;;;;;31.47;17.67;;;;;;;9.97;44.09;101117.75;5052201;28;20107;-71
2022/11/20 09:58:50;;;;;;;32.23;17.33;;;;;;;10.77;42.64;101120.91;5062041;28;20025;-70
2022/11/20 10:01:16;;;;;;;30.00;16.70;;;;;;;9.74;43.63;101124.75;5029595;28;20068;-71
2022/11/20 10:04:19;;;;;;;32.53;17.20;;;;;;;9.68;44.66;101121.31;5057657;28;20416;-71
2022/11/20 10:07:13;;;;;;;30.58;16.45;;;;;;;9.57;45.00;101117.81;5050626;28;20421;-70
2022/11/20 10:09:43;;;;;;;33.17;17.43;;;;;;;10.33;43.67;101100.19;5046197;28;20437;-71
2022/11/20 10:12:41;;;;;;;32.10;16.93;;;;;;;10.15;44.15;101095.03;5052102;28;20048;-71
2022/11/20 10:15:42;;;;;;;32.30;15.67;;;;;;;10.29;43.42;101082.81;5026441;28;20144;-70
2022/11/20 10:18:16;;;;;;;33.20;17.43;;;;;;;10.22;43.98;101073.25;5049829;28;20153;-70
2022/11/20 10:21:00;;;;;;;34.37;18.27;;;;;;;9.76;45.08;101065.59;5050217;28;20056;-70
2022/11/20 10:23:53;;;;;;;31.53;17.00;;;;;;;9.10;46.22;101063.97;5042590;28;20025;-70
2022/11/20 10:26:25;;;;;;;34.88;16.95;;;;;;;9.37;45.87;101065.69;5051050;28;20098;-70
2022/11/20 10:29:00;;;;;;;32.53;17.30;;;;;;;9.51;46.30;101065.66;5049959;28;20028;-69
2022/11/20 10:31:31;;;;;;;32.70;17.40;;;;;;;10.41;44.42;101050.53;5049925;28;20045;-69
2022/11/20 10:34:00;;;;;;;33.53;17.70;;;;;;;10.15;45.00;101042.81;5049232;28;20037;-70
2022/11/20 10:36:31;;;;;;;33.53;17.33;;;;;;;9.38;46.08;101043.06;5047848;28;20513;-69
2022/11/20 10:39:06;;;;;;;29.77;17.10;;;;;;;10.28;44.99;101035.78;5049729;28;20117;-69
2022/11/20 10:41:40;;;;;;;34.33;17.87;;;;;;;9.75;45.90;101032.53;5049798;28;20390;-69
2022/11/20 10:44:14;;;;;;;32.73;16.90;;;;;;;9.93;46.00;101027.25;5046733;28;20044;-69
2022/11/20 10:46:46;;;;;;;35.03;17.90;;;;;;;11.15;43.98;101018.59;5049113;28;20424;-69
2022/11/20 10:49:15;;;;;;;32.10;16.70;;;;;;;9.57;46.94;101025.63;5049268;28;20035;-69
2022/11/20 10:51:56;;;;;;;39.27;19.77;;;;;;;9.89;45.90;101015.09;5050686;28;20414;-69
2022/11/20 10:54:58;;;;;;;39.97;18.77;;;;;;;10.20;45.79;101007.09;5082118;28;20017;-70
2022/11/20 10:57:55;;;;;;;32.27;19.13;;;;;;;10.50;45.57;101005.19;5047879;28;20118;-69
2022/11/20 11:00:20;;;;;;;37.17;18.27;;;;;;;10.11;46.15;101004.50;5065009;28;20645;-69
2022/11/20 11:02:51;;;;;;;36.77;18.00;;;;;;;9.87;47.06;101001.16;5051219;28;20024;-69
2022/11/20 11:05:27;;;;;;;35.07;19.03;;;;;;;10.34;46.75;100997.47;5044518;28;20080;-69
2022/11/20 11:07:55;;;;;;;42.40;20.00;;;;;;;9.77;47.49;100994.25;5049982;28;20051;-69
2022/11/20 11:10:42;;;;;;;35.70;19.77;;;;;;;10.34;46.97;100984.41;5049679;28;20029;-70
2022/11/20 11:13:18;;;;;;;35.97;19.63;;;;;;;10.52;46.32;100980.78;5056664;28;20051;-69
2022/11/20 11:15:44;;;;;;;37.17;21.43;;;;;;;9.59;48.44;100985.59;5047212;28;20071;-69
2022/11/20 11:18:10;;;;;;;38.30;21.30;;;;;;;9.92;47.54;100982.84;5049755;28;20112;-69
2022/11/20 11:20:36;;;;;;;39.73;20.37;;;;;;;10.40;47.14;100964.31;5048898;28;20035;-70
2022/11/20 11:23:02;;;;;;;40.37;20.03;;;;;;;10.13;46.75;100966.22;5049103;28;20036;-70
2022/11/20 11:25:39;;;;;;;36.20;19.13;;;;;;;9.62;49.79;100963.84;5046507;28;20040;-69
2022/11/20 11:28:20;;;;;;;37.13;19.97;;;;;;;10.46;47.39;100939.00;5049003;28;20044;-69
2022/11/20 11:30:49;;;;;;;37.40;17.70;;;;;;;9.49;48.79;100936.91;5048896;28;20069;-70